Low Mountain, Arizona
Current Conditions -  °F | °C
As of 4:53 PM on Sunday 25 Jan 2015 (Local Time) from KRQE Reporting Station
Clear Clear  
Wind Chill: 53°   Ceiling: Unl
Heat Index: 53°   Visibility: 10mi
Dew Point: 24°   Wind: 8mph
Humidity: 32%   Direction: 140°SE
Pressure: 30.28"   Gusts: NA
Location:  36.1012°N, 109.584°W
Report Text: KRQE 252353Z AUTO 14007KT 10SM CLR 12/M04 A3028 RMK AO2 SLP221 T01171044 10150 20078 53001 TSNO
Loading
Personal Weather Stations






























Interactive Weather Map New forecast layout! Learn more

10-Day Weather Forecast

Advertisements
Track Severe Weather on mobile